createdAt,value
2023-06-19T00:02:30.798Z,97985.66
2023-06-19T00:05:32.213Z,97980.41
2023-06-19T00:08:33.620Z,97976.94
2023-06-19T00:11:35.069Z,97971.47
2023-06-19T00:14:37.588Z,97976.56
2023-06-19T00:17:39.115Z,97981.63
2023-06-19T00:20:40.654Z,97976.53
2023-06-19T00:23:42.077Z,97977.75
2023-06-19T00:26:43.890Z,97971.19
2023-06-19T00:29:45.364Z,97972.41
2023-06-19T00:32:47.672Z,97973.03
2023-06-19T00:35:52.448Z,97971.59
2023-06-19T00:38:53.907Z,97968.34
2023-06-19T00:41:56.497Z,97974.44
2023-06-19T00:44:57.907Z,97965.44
2023-06-19T00:48:01.497Z,97972.38
2023-06-19T00:51:03.387Z,97976.25
2023-06-19T00:54:05.626Z,97978.47
2023-06-19T00:57:08.196Z,97977.47
2023-06-19T01:00:13.334Z,97980.94
2023-06-19T01:03:17.798Z,97975.38
2023-06-19T01:06:39.473Z,97971.91
2023-06-19T01:10:05.481Z,97974.00
2023-06-19T01:13:11.788Z,97966.25
2023-06-19T01:16:13.795Z,97967.28
2023-06-19T01:19:20.840Z,97969.50
2023-06-19T01:22:32.095Z,97970.94
2023-06-19T01:25:33.512Z,97969.31
2023-06-19T01:28:39.927Z,97967.47
2023-06-19T01:31:51.578Z,97965.84
2023-06-19T01:34:55.552Z,97959.69
2023-06-19T01:37:57.803Z,97971.84
2023-06-19T01:41:01.850Z,97966.28
2023-06-19T01:44:03.567Z,97967.25
2023-06-19T01:47:10.454Z,97972.34
2023-06-19T01:50:12.278Z,97965.19
2023-06-19T01:53:14.353Z,97968.44
2023-06-19T01:56:16.499Z,97967.63
2023-06-19T01:59:17.946Z,97975.31
2023-06-19T02:02:19.401Z,97979.25
2023-06-19T02:05:20.854Z,97975.06
2023-06-19T02:08:22.284Z,97973.44
2023-06-19T02:11:23.885Z,97970.03
2023-06-19T02:14:25.264Z,97966.94
2023-06-19T02:17:26.962Z,97969.97
2023-06-19T02:20:28.435Z,97967.06
2023-06-19T02:23:29.941Z,97967.28
2023-06-19T02:26:31.398Z,97973.25
2023-06-19T02:29:34.901Z,97966.50
2023-06-19T02:32:36.355Z,97970.84
2023-06-19T02:35:37.799Z,97977.59
2023-06-19T02:38:39.229Z,97971.09
2023-06-19T02:41:40.634Z,97973.31
2023-06-19T02:44:43.529Z,97965.19
2023-06-19T02:47:45.054Z,97974.94
2023-06-19T02:50:46.512Z,97965.19
2023-06-19T02:53:48.623Z,97968.44
2023-06-19T02:56:50.083Z,97974.06
2023-06-19T02:59:51.481Z,97980.31
2023-06-19T03:02:52.984Z,97985.41
2023-06-19T03:05:54.451Z,97987.84
2023-06-19T03:08:55.847Z,97987.63
2023-06-19T03:11:57.358Z,97990.31
2023-06-19T03:14:58.785Z,97998.19
2023-06-19T03:18:00.325Z,97995.72
2023-06-19T03:21:01.748Z,98003.22
2023-06-19T03:24:03.746Z,98005.03
2023-06-19T03:27:05.576Z,98014.72
2023-06-19T03:30:07.352Z,98017.09
2023-06-19T03:33:08.810Z,98027.97
2023-06-19T03:36:10.263Z,98031.69
2023-06-19T03:39:11.691Z,98038.91
2023-06-19T03:42:13.137Z,98049.00
2023-06-19T03:45:14.646Z,98044.66
2023-06-19T03:48:17.704Z,98058.19
2023-06-19T03:51:19.214Z,98052.38
2023-06-19T03:54:20.833Z,98056.09
2023-06-19T03:57:22.341Z,98062.72
2023-06-19T04:00:24.085Z,98065.91
2023-06-19T04:03:25.861Z,98060.84
2023-06-19T04:06:27.423Z,98061.44
2023-06-19T04:09:28.811Z,98058.16
2023-06-19T04:12:30.398Z,98052.16
2023-06-19T04:15:33.202Z,98055.38
2023-06-19T04:18:34.678Z,98051.78
2023-06-19T04:21:36.120Z,98063.44
2023-06-19T04:24:37.651Z,98058.47
2023-06-19T04:27:39.203Z,98062.34
2023-06-19T04:30:40.683Z,98061.91
2023-06-19T04:33:42.986Z,98067.22
2023-06-19T04:36:45.516Z,98059.78
2023-06-19T04:39:47.479Z,98071.69
2023-06-19T04:42:48.933Z,98075.38
2023-06-19T04:45:50.411Z,98075.00
2023-06-19T04:48:51.917Z,98074.63
2023-06-19T04:51:53.349Z,98077.78
2023-06-19T04:54:54.929Z,98085.72
2023-06-19T04:57:56.340Z,98080.81
2023-06-19T05:00:57.786Z,98092.91
2023-06-19T05:04:00.646Z,98085.59
2023-06-19T05:07:02.393Z,98087.81
2023-06-19T05:10:03.933Z,98082.25
2023-06-19T05:13:05.382Z,98080.84
2023-06-19T05:16:06.929Z,98091.09
2023-06-19T05:19:08.361Z,98087.28
2023-06-19T05:22:09.904Z,98092.78
2023-06-19T05:25:11.364Z,98096.66
2023-06-19T05:28:12.793Z,98095.81
2023-06-19T05:31:14.456Z,98094.19
2023-06-19T05:34:15.873Z,98097.78
2023-06-19T05:37:17.803Z,98100.66
2023-06-19T05:40:19.220Z,98103.03
2023-06-19T05:43:20.657Z,98111.25
2023-06-19T05:46:22.170Z,98122.84
2023-06-19T05:49:23.726Z,98126.97
2023-06-19T05:52:25.663Z,98133.53
2023-06-19T05:55:28.536Z,98137.44
2023-06-19T05:58:30.007Z,98136.03
2023-06-19T06:01:31.659Z,98144.19
2023-06-19T06:04:33.104Z,98151.78
2023-06-19T06:07:36.563Z,98143.84
2023-06-19T06:10:38.888Z,98145.88
2023-06-19T06:13:40.340Z,98143.47
2023-06-19T06:16:41.817Z,98142.72
2023-06-19T06:19:43.308Z,98140.78
2023-06-19T06:22:45.061Z,98142.28
2023-06-19T06:25:46.887Z,98149.09
2023-06-19T06:28:49.048Z,98155.22
2023-06-19T06:31:53.465Z,98166.72
2023-06-19T06:34:54.891Z,98154.94
2023-06-19T06:37:56.394Z,98165.53
2023-06-19T06:40:57.910Z,98162.78
2023-06-19T06:43:59.326Z,98165.41
2023-06-19T06:47:00.795Z,98177.22
2023-06-19T06:50:02.232Z,98181.09
2023-06-19T06:53:04.814Z,98182.81
2023-06-19T06:56:06.252Z,98188.59
2023-06-19T06:59:10.759Z,98190.06
2023-06-19T07:02:13.715Z,98183.81
2023-06-19T07:05:15.251Z,98184.16
2023-06-19T07:08:17.006Z,98187.41
2023-06-19T07:11:18.439Z,98186.00
2023-06-19T07:14:19.837Z,98192.13
2023-06-19T07:17:21.910Z,98194.03
2023-06-19T07:20:23.531Z,98206.09
2023-06-19T07:23:25.315Z,98196.38
2023-06-19T07:26:27.081Z,98203.09
2023-06-19T07:29:28.492Z,98196.66
2023-06-19T07:32:29.953Z,98201.78
2023-06-19T07:35:31.400Z,98190.97
2023-06-19T07:38:32.880Z,98200.16
2023-06-19T07:41:34.304Z,98206.84
2023-06-19T07:44:35.721Z,98204.19
2023-06-19T07:47:37.838Z,98204.06
2023-06-19T07:50:39.232Z,98199.94
2023-06-19T07:53:40.848Z,98200.69
2023-06-19T07:56:42.632Z,98206.84
2023-06-19T07:59:45.753Z,98207.84
2023-06-19T08:02:47.312Z,98211.78
2023-06-19T08:05:48.803Z,98209.78
2023-06-19T08:08:50.265Z,98206.31
2023-06-19T08:11:51.678Z,98213.66
2023-06-19T08:14:53.084Z,98221.22
2023-06-19T08:17:54.539Z,98212.84
2023-06-19T08:20:56.022Z,98219.16
2023-06-19T08:23:57.509Z,98220.00
2023-06-19T08:26:59.659Z,98229.38
2023-06-19T08:30:01.056Z,98226.94
2023-06-19T08:33:02.639Z,98222.88
2023-06-19T08:36:04.361Z,98227.97
2023-06-19T08:39:05.961Z,98226.56
2023-06-19T08:42:09.043Z,98232.47
2023-06-19T08:45:10.747Z,98225.13
2023-06-19T08:48:15.109Z,98227.59
2023-06-19T08:51:16.497Z,98241.50
2023-06-19T08:54:18.603Z,98235.34
2023-06-19T08:57:20.256Z,98232.44
2023-06-19T09:00:29.828Z,98241.38
2023-06-19T09:03:31.745Z,98239.03
2023-06-19T09:06:33.331Z,98238.00
2023-06-19T09:09:35.126Z,98244.75
2023-06-19T09:12:36.721Z,98239.63
2023-06-19T09:15:38.728Z,98238.19
2023-06-19T09:18:49.502Z,98232.47
2023-06-19T09:21:50.970Z,98236.38
2023-06-19T09:24:52.625Z,98234.09
2023-06-19T09:27:55.504Z,98228.41
2023-06-19T09:31:01.813Z,98230.41
2023-06-19T09:34:03.480Z,98234.88
2023-06-19T09:37:05.371Z,98236.28
2023-06-19T09:40:14.211Z,98229.72
2023-06-19T09:43:23.452Z,98218.84
2023-06-19T09:46:33.479Z,98232.16
2023-06-19T09:49:36.027Z,98227.16
2023-06-19T09:52:37.562Z,98223.91
2023-06-19T09:55:39.881Z,98223.38
2023-06-19T09:58:44.106Z,98221.19
2023-06-19T10:01:46.219Z,98222.44
2023-06-19T10:04:51.662Z,98221.84
2023-06-19T10:07:53.097Z,98222.28
2023-06-19T10:10:56.130Z,98219.19
2023-06-19T10:14:07.136Z,98221.78
2023-06-19T10:17:13.443Z,98223.38
2023-06-19T10:20:26.911Z,98221.63
2023-06-19T10:23:29.834Z,98216.34
2023-06-19T10:26:33.460Z,98215.97
2023-06-19T10:29:43.122Z,98209.88
2023-06-19T10:32:49.111Z,98218.53
2023-06-19T10:35:50.572Z,98219.00
2023-06-19T10:38:52.092Z,98214.47
2023-06-19T10:41:53.535Z,98209.06
2023-06-19T10:45:04.404Z,98205.34
2023-06-19T10:48:06.252Z,98199.56
2023-06-19T10:51:07.743Z,98194.38
2023-06-19T10:54:09.237Z,98185.41
2023-06-19T10:57:10.670Z,98183.13
2023-06-19T11:00:13.862Z,98188.41
2023-06-19T11:03:15.507Z,98177.66
2023-06-19T11:06:23.085Z,98176.78
2023-06-19T11:09:25.626Z,98178.41
2023-06-19T11:12:27.046Z,98173.56
2023-06-19T11:15:35.719Z,98170.16
2023-06-19T11:18:37.269Z,98159.78
2023-06-19T11:21:42.045Z,98167.81
2023-06-19T11:24:47.737Z,98161.03
2023-06-19T11:27:53.021Z,98161.78
2023-06-19T11:31:03.885Z,98158.94
2023-06-19T11:34:05.493Z,98156.19
2023-06-19T11:37:18.956Z,98153.88
2023-06-19T11:40:24.361Z,98155.06
2023-06-19T11:43:31.292Z,98154.94
2023-06-19T11:46:34.457Z,98156.31
2023-06-19T11:49:36.937Z,98155.16
2023-06-19T11:52:38.551Z,98155.50
2023-06-19T11:55:40.032Z,98154.34
2023-06-19T11:58:41.506Z,98143.91
2023-06-19T12:01:42.930Z,98136.53
2023-06-19T12:04:44.768Z,98136.94
2023-06-19T12:07:46.449Z,98133.19
2023-06-19T12:10:47.852Z,98128.41
2023-06-19T12:13:49.649Z,98124.22
2023-06-19T12:16:51.184Z,98122.94
2023-06-19T12:19:54.303Z,98118.22
2023-06-19T12:22:56.033Z,98114.63
2023-06-19T12:25:58.308Z,98114.22
2023-06-19T12:28:59.931Z,98120.69
2023-06-19T12:32:03.800Z,98112.28
2023-06-19T12:35:05.669Z,98120.69
2023-06-19T12:38:07.811Z,98113.94
2023-06-19T12:41:09.434Z,98115.09
2023-06-19T12:44:11.276Z,98112.59
2023-06-19T12:47:13.303Z,98103.47
2023-06-19T12:50:14.776Z,98104.47
2023-06-19T12:53:16.166Z,98108.75
2023-06-19T12:56:17.557Z,98106.94
2023-06-19T12:59:19.278Z,98107.94
2023-06-19T13:02:21.097Z,98111.19
2023-06-19T13:05:22.556Z,98106.69
2023-06-19T13:08:23.956Z,98110.69
2023-06-19T13:11:25.360Z,98098.88
2023-06-19T13:14:26.781Z,98096.31
2023-06-19T13:17:28.226Z,98098.44
2023-06-19T13:20:29.677Z,98094.38
2023-06-19T13:23:32.125Z,98086.09
2023-06-19T13:26:33.715Z,98094.31
2023-06-19T13:29:35.148Z,98094.94
2023-06-19T13:32:36.643Z,98097.31
2023-06-19T13:35:38.177Z,98098.19
2023-06-19T13:38:39.897Z,98099.00
2023-06-19T13:41:42.284Z,98085.84
2023-06-19T13:44:43.720Z,98086.47
2023-06-19T13:47:45.297Z,98086.66
2023-06-19T13:50:47.633Z,98092.16
2023-06-19T13:53:49.555Z,98088.25
2023-06-19T13:56:52.197Z,98079.66
2023-06-19T13:59:53.681Z,98078.25
2023-06-19T14:03:00.423Z,98081.69
2023-06-19T14:06:01.953Z,98082.38
2023-06-19T14:09:03.392Z,98084.84
2023-06-19T14:12:05.288Z,98079.59
2023-06-19T14:15:09.033Z,98094.94
2023-06-19T14:18:10.801Z,98092.63
2023-06-19T14:21:12.455Z,98089.63
2023-06-19T14:24:14.118Z,98087.03
2023-06-19T14:27:16.125Z,98081.75
2023-06-19T14:30:17.793Z,98092.00
2023-06-19T14:33:19.577Z,98089.84
2023-06-19T14:36:21.115Z,98087.81
2023-06-19T14:39:22.862Z,98076.81
2023-06-19T14:42:24.364Z,98080.47
2023-06-19T14:45:28.249Z,98077.78
2023-06-19T14:48:31.511Z,98074.22
2023-06-19T14:51:33.277Z,98077.53
2023-06-19T14:54:34.961Z,98080.31
2023-06-19T14:57:37.328Z,98077.53
2023-06-19T15:00:39.536Z,98076.06
2023-06-19T15:03:41.147Z,98078.75
2023-06-19T15:06:42.934Z,98072.50
2023-06-19T15:09:44.340Z,98070.47
2023-06-19T15:12:45.771Z,98069.81
2023-06-19T15:15:47.776Z,98079.00
2023-06-19T15:18:49.382Z,98082.97
2023-06-19T15:21:51.174Z,98078.59
2023-06-19T15:24:52.612Z,98080.06
2023-06-19T15:27:54.032Z,98092.13
2023-06-19T15:30:55.448Z,98086.72
2023-06-19T15:33:56.945Z,98089.69
2023-06-19T15:36:59.402Z,98086.34
2023-06-19T15:40:02.548Z,98092.19
2023-06-19T15:43:05.905Z,98093.34
2023-06-19T15:46:09.189Z,98083.13
2023-06-19T15:49:13.942Z,98075.91
2023-06-19T15:52:15.508Z,98071.63
2023-06-19T15:55:16.951Z,98068.66
2023-06-19T15:58:18.448Z,98066.81
2023-06-19T16:01:19.968Z,98053.16
2023-06-19T16:04:21.620Z,98047.56
2023-06-19T16:07:23.156Z,98050.38
2023-06-19T16:10:25.026Z,98039.66
2023-06-19T16:13:26.645Z,98038.50
2023-06-19T16:16:28.154Z,98040.69
2023-06-19T16:19:29.597Z,98034.53
2023-06-19T16:22:31.027Z,98040.38
2023-06-19T16:25:32.441Z,98040.47
2023-06-19T16:28:33.973Z,98041.28
2023-06-19T16:31:41.302Z,98033.59
2023-06-19T16:34:43.428Z,98026.13
2023-06-19T16:37:44.869Z,98029.44
2023-06-19T16:40:46.490Z,98028.00
2023-06-19T16:43:47.905Z,98034.53
2023-06-19T16:46:50.432Z,98040.63
2023-06-19T16:49:51.894Z,98034.63
2023-06-19T16:52:53.479Z,98030.41
2023-06-19T16:55:56.899Z,98025.88
2023-06-19T16:58:58.608Z,98027.66
2023-06-19T17:02:00.221Z,98027.25
2023-06-19T17:05:01.796Z,98030.63
2023-06-19T17:08:03.348Z,98033.00
2023-06-19T17:11:04.816Z,98038.78
2023-06-19T17:14:06.241Z,98034.25
2023-06-19T17:17:07.751Z,98033.81
2023-06-19T17:20:10.289Z,98042.59
2023-06-19T17:23:11.800Z,98038.69
2023-06-19T17:26:13.403Z,98045.09
2023-06-19T17:29:14.841Z,98054.13
2023-06-19T17:32:16.246Z,98047.31
2023-06-19T17:35:18.545Z,98055.13
2023-06-19T17:38:19.978Z,98050.28
2023-06-19T17:41:21.410Z,98048.78
2023-06-19T17:44:26.485Z,98053.84
2023-06-19T17:47:27.973Z,98050.59
2023-06-19T17:50:29.689Z,98054.06
2023-06-19T17:53:31.610Z,98053.03
2023-06-19T17:56:33.138Z,98062.91
2023-06-19T17:59:34.829Z,98056.28
2023-06-19T18:02:36.440Z,98053.78
2023-06-19T18:05:38.007Z,98055.28
2023-06-19T18:08:39.450Z,98062.09
2023-06-19T18:11:40.892Z,98059.66
2023-06-19T18:14:43.158Z,98059.25
2023-06-19T18:17:44.599Z,98065.91
2023-06-19T18:20:46.118Z,98061.28
2023-06-19T18:23:48.956Z,98064.28
2023-06-19T18:26:51.358Z,98065.34
2023-06-19T18:29:52.898Z,98060.00
2023-06-19T18:32:54.389Z,98057.81
2023-06-19T18:35:55.884Z,98054.56
2023-06-19T18:38:57.430Z,98059.31
2023-06-19T18:41:58.931Z,98060.28
2023-06-19T18:45:00.452Z,98062.66
2023-06-19T18:51:36.328Z,98063.31
2023-06-19T18:54:39.974Z,98064.72
2023-06-19T18:57:47.295Z,98070.13
2023-06-19T19:00:57.381Z,98074.91
2023-06-19T19:04:08.020Z,98078.78
2023-06-19T19:07:09.516Z,98073.91
2023-06-19T19:10:11.126Z,98081.13
2023-06-19T19:13:13.871Z,98072.50
2023-06-19T19:16:15.398Z,98066.00
2023-06-19T19:19:16.902Z,98067.53
2023-06-19T19:22:18.405Z,98075.88
2023-06-19T19:25:19.872Z,98073.81
2023-06-19T19:28:21.267Z,98073.09
2023-06-19T19:31:22.652Z,98067.41
2023-06-19T19:34:26.226Z,98074.38
2023-06-19T19:37:32.796Z,98073.47
2023-06-19T19:40:34.463Z,98072.56
2023-06-19T19:43:36.005Z,98071.03
2023-06-19T19:46:38.968Z,98069.06
2023-06-19T19:49:40.502Z,98084.50
2023-06-19T19:52:48.075Z,98078.28
2023-06-19T19:55:49.963Z,98079.56
2023-06-19T19:58:52.404Z,98078.66
2023-06-19T20:01:53.945Z,98082.94
2023-06-19T20:04:55.391Z,98082.22
2023-06-19T20:07:56.784Z,98090.09
2023-06-19T20:10:58.203Z,98085.09
2023-06-19T20:13:59.637Z,98088.69
2023-06-19T20:17:01.087Z,98086.69
2023-06-19T20:20:05.045Z,98092.13
2023-06-19T20:23:07.101Z,98088.28
2023-06-19T20:26:08.521Z,98085.53
2023-06-19T20:29:19.548Z,98091.19
2023-06-19T20:32:23.938Z,98088.38
2023-06-19T20:35:25.311Z,98095.72
2023-06-19T20:38:26.722Z,98097.16
2023-06-19T20:41:28.116Z,98097.38
2023-06-19T20:44:29.777Z,98094.41
2023-06-19T20:47:31.207Z,98101.53
2023-06-19T20:50:32.680Z,98102.66
2023-06-19T20:53:34.122Z,98106.91
2023-06-19T20:56:36.012Z,98112.72
2023-06-19T20:59:37.454Z,98116.28
2023-06-19T21:02:39.056Z,98117.00
2023-06-19T21:05:40.540Z,98113.50
2023-06-19T21:08:41.983Z,98112.31
2023-06-19T21:11:43.390Z,98121.25
2023-06-19T21:14:44.967Z,98113.09
2023-06-19T21:17:46.473Z,98113.97
2023-06-19T21:20:49.369Z,98116.03
2023-06-19T21:23:50.826Z,98118.25
2023-06-19T21:26:52.264Z,98116.97
2023-06-19T21:29:53.661Z,98119.81
2023-06-19T21:32:55.125Z,98113.03
2023-06-19T21:35:56.568Z,98112.13
2023-06-19T21:38:57.961Z,98099.03
2023-06-19T21:41:59.374Z,98108.38
2023-06-19T21:45:01.842Z,98102.81
2023-06-19T21:48:03.395Z,98102.81
2023-06-19T21:51:04.839Z,98101.19
2023-06-19T21:54:06.334Z,98099.75
2023-06-19T21:57:08.038Z,98098.75
2023-06-19T22:00:10.468Z,98089.19
2023-06-19T22:03:11.999Z,98094.78
2023-06-19T22:06:14.993Z,98091.84
2023-06-19T22:09:16.402Z,98095.09
2023-06-19T22:12:17.806Z,98094.88
2023-06-19T22:15:19.455Z,98098.78
2023-06-19T22:18:20.868Z,98096.19
2023-06-19T22:21:22.263Z,98099.47
2023-06-19T22:24:24.367Z,98090.94
2023-06-19T22:27:25.784Z,98092.19
2023-06-19T22:30:27.527Z,98087.09
2023-06-19T22:33:29.200Z,98084.59
2023-06-19T22:36:30.648Z,98080.16
2023-06-19T22:39:33.434Z,98075.06
2023-06-19T22:42:35.170Z,98081.59
2023-06-19T22:45:36.683Z,98088.16
2023-06-19T22:48:42.180Z,98080.06
2023-06-19T22:51:43.559Z,98076.19
2023-06-19T22:54:44.938Z,98079.44
2023-06-19T22:57:46.318Z,98074.56
2023-06-19T23:00:47.737Z,98066.63
2023-06-19T23:03:49.198Z,98068.47
2023-06-19T23:06:52.248Z,98066.63
2023-06-19T23:09:56.539Z,98062.13
2023-06-19T23:12:57.944Z,98059.69
2023-06-19T23:15:59.352Z,98049.28
2023-06-19T23:19:01.015Z,98053.22
2023-06-19T23:22:03.299Z,98049.53
2023-06-19T23:25:08.432Z,98041.41
2023-06-19T23:28:13.948Z,98030.34
2023-06-19T23:31:15.335Z,98022.81
2023-06-19T23:34:16.744Z,98022.59
2023-06-19T23:37:18.289Z,98020.97
2023-06-19T23:40:19.740Z,98012.38
2023-06-19T23:43:21.189Z,98013.03
2023-06-19T23:46:22.656Z,98013.03
2023-06-19T23:49:24.114Z,98005.50
2023-06-19T23:52:38.251Z,98005.91
2023-06-19T23:55:44.814Z,98002.66
2023-06-19T23:58:46.268Z,98006.16
